createdAt,value
2019-04-29T00:01:57.001Z,52.85
2019-04-29T00:06:02.710Z,52.30
2019-04-29T00:10:10.871Z,52.16
2019-04-29T00:14:16.800Z,52.06
2019-04-29T00:18:24.121Z,54.17
2019-04-29T00:22:29.788Z,54.95
2019-04-29T00:26:35.551Z,54.97
2019-04-29T00:30:41.447Z,53.16
2019-04-29T00:34:47.273Z,53.76
2019-04-29T00:39:12.577Z,54.53
2019-04-29T00:43:30.007Z,56.47
2019-04-29T00:47:35.772Z,57.36
2019-04-29T00:51:41.521Z,56.65
2019-04-29T00:55:48.894Z,55.82
2019-04-29T00:59:54.574Z,54.05
2019-04-29T01:04:00.321Z,54.34
2019-04-29T01:08:06.248Z,56.15
2019-04-29T01:12:11.956Z,57.34
2019-04-29T01:16:17.725Z,59.31
2019-04-29T01:20:24.450Z,60.33
2019-04-29T01:24:30.130Z,57.81
2019-04-29T01:28:37.440Z,57.75
2019-04-29T01:32:43.134Z,58.93
2019-04-29T01:36:48.825Z,58.61
2019-04-29T01:40:56.140Z,56.25
2019-04-29T01:45:01.889Z,62.57
2019-04-29T01:49:07.738Z,57.75
2019-04-29T01:53:13.413Z,58.60
2019-04-29T01:57:19.127Z,58.65
2019-04-29T02:01:25.044Z,60.72
2019-04-29T02:05:30.744Z,56.78
2019-04-29T02:09:38.051Z,59.32
2019-04-29T02:13:44.707Z,58.87
2019-04-29T02:17:50.388Z,59.59
2019-04-29T02:22:09.772Z,57.74
2019-04-29T02:26:15.460Z,59.16
2019-04-29T02:30:41.182Z,58.30
2019-04-29T02:34:46.867Z,58.18
2019-04-29T02:39:10.260Z,57.09
2019-04-29T02:43:17.721Z,56.48
2019-04-29T02:47:23.415Z,58.89
2019-04-29T02:51:48.333Z,56.15
2019-04-29T02:55:55.654Z,58.26
2019-04-29T03:00:03.213Z,60.35
2019-04-29T03:04:17.919Z,60.46
2019-04-29T03:08:24.058Z,61.79
2019-04-29T03:12:29.839Z,60.10
2019-04-29T03:16:35.726Z,60.89
2019-04-29T03:20:49.027Z,60.58
2019-04-29T03:24:55.757Z,60.19
2019-04-29T03:29:03.205Z,59.21
2019-04-29T03:33:08.884Z,61.99
2019-04-29T03:37:14.618Z,56.92
2019-04-29T03:41:20.311Z,58.22
2019-04-29T03:45:25.984Z,58.20
2019-04-29T03:49:31.745Z,59.85
2019-04-29T03:53:37.407Z,57.68
2019-04-29T03:57:43.090Z,61.76
2019-04-29T04:02:08.446Z,63.28
2019-04-29T04:06:15.771Z,61.01
2019-04-29T04:10:21.529Z,58.47
2019-04-29T04:14:28.180Z,58.18
2019-04-29T04:18:35.483Z,59.06
2019-04-29T04:22:48.214Z,57.02
2019-04-29T04:26:53.929Z,57.54
2019-04-29T04:30:59.604Z,59.49
2019-04-29T04:35:06.994Z,58.61
2019-04-29T04:39:12.723Z,56.25
2019-04-29T04:43:18.408Z,55.31
2019-04-29T04:47:24.090Z,55.33
2019-04-29T04:51:29.839Z,56.46
2019-04-29T04:55:38.360Z,56.18
2019-04-29T04:59:44.025Z,54.83
2019-04-29T05:03:50.685Z,54.51
2019-04-29T05:07:56.382Z,55.37
2019-04-29T05:12:02.091Z,55.02
2019-04-29T05:16:07.782Z,55.84
2019-04-29T05:20:13.693Z,58.53
2019-04-29T05:24:19.387Z,54.91
2019-04-29T05:28:25.186Z,54.41
2019-04-29T05:32:30.879Z,55.75
2019-04-29T05:36:39.345Z,54.93
2019-04-29T05:40:46.692Z,54.94
2019-04-29T05:44:56.922Z,53.66
2019-04-29T05:49:07.156Z,53.67
2019-04-29T05:53:16.409Z,53.34
2019-04-29T05:57:25.221Z,56.77
2019-04-29T06:01:31.502Z,55.52
2019-04-29T06:05:37.203Z,53.55
2019-04-29T06:09:42.892Z,54.95
2019-04-29T06:13:48.588Z,54.76
2019-04-29T06:17:54.428Z,55.81
2019-04-29T06:22:00.130Z,55.52
2019-04-29T06:26:05.821Z,53.67
2019-04-29T06:30:11.836Z,52.58
2019-04-29T06:34:18.491Z,53.10
2019-04-29T06:38:24.181Z,52.63
2019-04-29T06:42:29.864Z,52.63
2019-04-29T06:46:35.563Z,50.68
2019-04-29T06:50:41.322Z,54.16
2019-04-29T06:54:47.077Z,52.35
2019-04-29T06:58:52.835Z,51.71
2019-04-29T07:02:58.519Z,50.47
2019-04-29T07:07:04.349Z,52.76
2019-04-29T07:11:10.061Z,51.74
2019-04-29T07:15:15.942Z,54.28
2019-04-29T07:19:22.162Z,51.20
2019-04-29T07:23:29.058Z,53.50
2019-04-29T07:27:42.792Z,48.73
2019-04-29T07:31:42.241Z,46.39
2019-04-29T07:35:49.593Z,49.03
2019-04-29T07:39:55.396Z,51.06
2019-04-29T07:44:01.095Z,46.59
2019-04-29T07:48:07.736Z,49.41
2019-04-29T07:52:14.540Z,46.27
2019-04-29T07:56:20.967Z,46.41
2019-04-29T08:00:34.955Z,45.29
2019-04-29T08:04:40.646Z,45.05
2019-04-29T08:08:54.735Z,44.83
2019-04-29T08:12:55.963Z,45.20
2019-04-29T08:17:01.660Z,46.40
2019-04-29T08:21:10.300Z,47.97
2019-04-29T08:25:14.878Z,45.94
2019-04-29T08:29:20.564Z,45.32
2019-04-29T08:33:26.256Z,44.30
2019-04-29T08:37:31.941Z,45.81
2019-04-29T08:41:37.775Z,46.26
2019-04-29T08:45:47.781Z,44.66
2019-04-29T08:49:53.487Z,43.47
2019-04-29T08:53:59.152Z,43.97
2019-04-29T08:58:07.015Z,42.43
2019-04-29T09:02:12.424Z,41.66
2019-04-29T09:06:18.106Z,41.32
2019-04-29T09:10:23.888Z,40.95
2019-04-29T09:14:29.573Z,40.71
2019-04-29T09:18:35.264Z,40.18
2019-04-29T09:22:45.497Z,39.83
2019-04-29T09:26:53.793Z,39.88
2019-04-29T09:30:59.475Z,39.86
2019-04-29T09:35:05.846Z,39.72
2019-04-29T09:39:11.589Z,38.44
2019-04-29T09:43:25.622Z,39.91
2019-04-29T09:47:29.525Z,38.14
2019-04-29T09:51:36.277Z,38.71
2019-04-29T09:55:41.976Z,38.79
2019-04-29T09:59:51.792Z,37.34
2019-04-29T10:04:01.770Z,37.64
2019-04-29T10:08:07.738Z,37.57
2019-04-29T10:12:13.967Z,35.00
2019-04-29T10:16:31.691Z,38.73
2019-04-29T10:20:37.297Z,36.67
2019-04-29T10:24:43.061Z,37.26
2019-04-29T10:28:53.057Z,38.69
2019-04-29T10:32:58.836Z,38.05
2019-04-29T10:37:04.766Z,36.43
2019-04-29T10:41:19.441Z,37.10
2019-04-29T10:45:26.839Z,37.87
2019-04-29T10:49:34.853Z,36.61
2019-04-29T10:53:41.736Z,36.34
2019-04-29T10:57:49.629Z,38.54
2019-04-29T11:02:22.993Z,36.26
2019-04-29T11:06:31.334Z,36.71
2019-04-29T11:10:36.561Z,33.57
2019-04-29T11:14:42.393Z,35.24
2019-04-29T11:18:48.184Z,34.56
2019-04-29T11:22:59.441Z,33.89
2019-04-29T11:27:18.906Z,33.69
2019-04-29T11:31:24.803Z,34.30
2019-04-29T11:35:32.266Z,34.13
2019-04-29T11:39:38.119Z,35.01
2019-04-29T11:43:46.721Z,34.65
2019-04-29T11:47:51.611Z,33.21
2019-04-29T11:52:09.070Z,33.54
2019-04-29T11:56:04.997Z,33.45
2019-04-29T12:00:30.783Z,34.93
2019-04-29T12:04:43.773Z,35.38
2019-04-29T12:08:53.375Z,34.85
2019-04-29T12:12:58.731Z,34.76
2019-04-29T12:17:21.279Z,32.73
2019-04-29T12:21:28.601Z,32.92
2019-04-29T12:25:36.465Z,33.86
2019-04-29T12:29:41.668Z,34.89
2019-04-29T12:33:49.008Z,35.11
2019-04-29T12:37:56.337Z,36.50
2019-04-29T12:42:20.522Z,37.94
2019-04-29T12:46:26.036Z,35.66
2019-04-29T12:50:33.132Z,34.72
2019-04-29T12:54:42.114Z,35.86
2019-04-29T12:58:50.478Z,36.46
2019-04-29T13:02:59.830Z,34.43
2019-04-29T13:07:09.800Z,36.47
2019-04-29T13:11:19.033Z,31.78
2019-04-29T13:15:33.319Z,32.68
2019-04-29T13:19:40.304Z,33.07
2019-04-29T13:23:59.144Z,35.44
2019-04-29T13:27:56.096Z,34.31
2019-04-29T13:32:01.730Z,35.35
2019-04-29T13:36:09.298Z,34.41
2019-04-29T13:40:15.641Z,34.75
2019-04-29T13:44:21.388Z,34.85
2019-04-29T13:48:28.692Z,32.53
2019-04-29T13:52:34.396Z,33.85
2019-04-29T13:56:55.497Z,35.67
2019-04-29T14:00:47.247Z,33.86
2019-04-29T14:04:56.002Z,34.09
2019-04-29T14:09:03.955Z,36.19
2019-04-29T14:13:16.298Z,34.10
2019-04-29T14:17:26.475Z,34.28
2019-04-29T14:21:30.056Z,34.96
2019-04-29T14:25:33.212Z,34.98
2019-04-29T14:29:38.881Z,37.95
2019-04-29T14:33:48.654Z,35.06
2019-04-29T14:37:55.848Z,35.96
2019-04-29T14:42:03.354Z,36.37
2019-04-29T14:46:26.562Z,36.05
2019-04-29T14:50:32.407Z,37.59
2019-04-29T14:54:41.844Z,34.80
2019-04-29T14:58:45.631Z,38.58
2019-04-29T15:02:51.375Z,35.41
2019-04-29T15:06:57.117Z,34.97
2019-04-29T15:11:04.235Z,35.44
2019-04-29T15:15:16.859Z,36.93
2019-04-29T15:19:39.809Z,36.87
2019-04-29T15:23:47.210Z,37.44
2019-04-29T15:27:52.898Z,37.57
2019-04-29T15:31:58.608Z,36.47
2019-04-29T15:36:04.277Z,37.68
2019-04-29T15:40:10.543Z,36.69
2019-04-29T15:44:20.116Z,35.94
2019-04-29T15:48:23.584Z,36.54
2019-04-29T15:52:29.376Z,36.55
2019-04-29T15:56:38.548Z,38.64
2019-04-29T16:00:42.488Z,36.73
2019-04-29T16:04:55.610Z,37.60
2019-04-29T16:09:03.088Z,33.56
2019-04-29T16:13:14.902Z,36.51
2019-04-29T16:17:20.897Z,36.15
2019-04-29T16:21:32.174Z,38.09
2019-04-29T16:25:40.361Z,38.83
2019-04-29T16:29:46.229Z,38.80
2019-04-29T16:33:54.591Z,35.92
2019-04-29T16:37:56.432Z,40.40
2019-04-29T16:42:07.053Z,41.97
2019-04-29T16:46:14.470Z,44.81
2019-04-29T16:50:20.189Z,45.28
2019-04-29T16:54:28.441Z,46.78
2019-04-29T16:58:33.730Z,46.89
2019-04-29T17:08:09.231Z,47.27
2019-04-29T17:12:16.516Z,47.23
2019-04-29T17:16:23.894Z,46.19
2019-04-29T17:20:29.802Z,46.40
2019-04-29T17:24:35.495Z,47.07
2019-04-29T17:28:42.834Z,48.64
2019-04-29T17:32:50.854Z,48.20
2019-04-29T17:36:56.804Z,48.87
2019-04-29T17:41:02.560Z,49.21
2019-04-29T17:45:12.337Z,50.87
2019-04-29T17:49:18.167Z,49.00
2019-04-29T17:53:25.582Z,50.72
2019-04-29T17:57:34.070Z,50.12
2019-04-29T18:01:46.824Z,49.73
2019-04-29T18:06:05.472Z,52.43
2019-04-29T18:10:29.654Z,51.23
2019-04-29T18:14:39.098Z,50.72
2019-04-29T18:18:46.616Z,52.44
2019-04-29T18:23:11.196Z,51.11
2019-04-29T18:27:25.333Z,52.30
2019-04-29T18:31:31.890Z,52.04
2019-04-29T18:35:38.548Z,52.52
2019-04-29T18:39:44.235Z,52.36
2019-04-29T18:43:49.989Z,52.12
2019-04-29T18:47:55.687Z,55.92
2019-04-29T18:52:02.278Z,55.56
2019-04-29T18:56:08.973Z,55.63
2019-04-29T19:00:19.926Z,55.12
2019-04-29T19:04:25.920Z,56.91
2019-04-29T19:08:31.953Z,56.23
2019-04-29T19:12:39.370Z,57.62
2019-04-29T19:16:45.874Z,56.85
2019-04-29T19:20:52.736Z,58.73
2019-04-29T19:24:59.150Z,57.38
2019-04-29T19:29:06.242Z,57.72
2019-04-29T19:33:12.625Z,58.66
2019-04-29T19:37:18.400Z,58.76
2019-04-29T19:41:25.625Z,59.55
2019-04-29T19:45:31.799Z,59.96
2019-04-29T19:49:40.177Z,59.52
2019-04-29T19:53:49.149Z,59.07
2019-04-29T19:57:52.865Z,57.20
2019-04-29T20:02:05.383Z,57.55
2019-04-29T20:06:21.368Z,58.55
2019-04-29T20:10:21.918Z,59.04
2019-04-29T20:14:33.490Z,59.69
2019-04-29T20:18:40.442Z,59.62
2019-04-29T20:22:50.586Z,59.78
2019-04-29T20:26:52.203Z,60.34
2019-04-29T20:31:14.802Z,59.63
2019-04-29T20:35:08.879Z,59.56
2019-04-29T20:39:19.832Z,60.15
2019-04-29T20:43:25.948Z,59.94
2019-04-29T20:47:37.605Z,60.09
2019-04-29T20:51:48.631Z,60.84
2019-04-29T20:55:46.110Z,61.52
2019-04-29T20:59:51.994Z,60.36
2019-04-29T21:03:58.019Z,61.03
2019-04-29T21:08:14.049Z,61.27
2019-04-29T21:12:12.746Z,60.80
2019-04-29T21:16:22.839Z,61.10
2019-04-29T21:20:27.517Z,61.04
2019-04-29T21:24:35.174Z,60.13
2019-04-29T21:28:41.810Z,60.20
2019-04-29T21:32:48.288Z,59.88
2019-04-29T21:37:06.695Z,60.17
2019-04-29T21:41:20.307Z,61.08
2019-04-29T21:45:26.290Z,61.11
2019-04-29T21:49:43.310Z,61.25
2019-04-29T21:53:40.406Z,60.69
2019-04-29T21:57:46.174Z,61.77
2019-04-29T22:01:51.873Z,59.72
2019-04-29T22:06:00.183Z,60.63
2019-04-29T22:10:07.039Z,61.04
2019-04-29T22:14:14.059Z,58.54
2019-04-29T22:18:22.210Z,60.63
2019-04-29T22:22:30.667Z,59.94
2019-04-29T22:26:35.293Z,60.53
2019-04-29T22:30:41.113Z,60.95
2019-04-29T22:34:49.497Z,60.40
2019-04-29T22:38:55.827Z,61.23
2019-04-29T22:43:08.929Z,60.12
2019-04-29T22:47:10.718Z,61.76
2019-04-29T22:51:18.844Z,61.69
2019-04-29T22:55:25.317Z,60.14
2019-04-29T22:59:31.076Z,60.20
2019-04-29T23:03:37.516Z,61.52
2019-04-29T23:07:45.573Z,60.75
2019-04-29T23:11:52.309Z,59.74
2019-04-29T23:16:01.090Z,59.36
2019-04-29T23:20:28.819Z,60.12
2019-04-29T23:24:36.388Z,59.01
2019-04-29T23:28:42.123Z,59.73
2019-04-29T23:32:47.918Z,59.71
2019-04-29T23:36:53.600Z,59.93
2019-04-29T23:40:59.420Z,60.66
2019-04-29T23:45:06.578Z,60.83
2019-04-29T23:49:12.345Z,60.42
2019-04-29T23:53:20.747Z,60.02
2019-04-29T23:57:29.778Z,60.04
